Portada
METAR-TAF:

METAR-TAF

Aeroports :

Bückeburg, Alemanya

latitud: 52-17N, longitud: 009-05E, altitud: 70 m

Observació

L'informe es va fer fa 53 minuts, a les 03:20 UTC
Vent 11 kt del Oest
Temperatura 7°C
Humitat 87%
Pressió 1016 hPa
Visibilitat: 6000 m

METAR: ETHB 230320Z AUTO 26011KT 6000 // ////// 07/05 Q1016 ///

Hora: 05:13 (04:13 UTC)


TAF: manca

Observacions i pronòstics meteorològics de més de 4000 aeroports (METAR i TAF).

Les estacions disponibles són els punts grocs i vermells al mapa.

Posi el ratolí al punt desitjat per veure el nom de l'estació.

Feu clic per veure les observacions i els pronòstics meteorològics.

Per canviar el mapa: feu clic els botons verds amb una creu de color negre per apropar; al botó verd amb un guió per allunyar la imatge; o en les fletxes verdes per a mapes adjacents.


METAR-TAF: